createdAt,value
2023-03-03T00:02:05.312Z,35.67
2023-03-03T00:04:53.940Z,35.67
2023-03-03T00:07:44.750Z,36.77
2023-03-03T00:10:33.515Z,33.70
2023-03-03T00:13:23.568Z,35.80
2023-03-03T00:16:16.419Z,37.77
2023-03-03T00:19:14.308Z,36.50
2023-03-03T00:22:02.797Z,37.30
2023-03-03T00:24:51.314Z,36.30
2023-03-03T00:27:39.792Z,35.23
2023-03-03T00:30:29.099Z,33.63
2023-03-03T00:33:28.014Z,35.40
2023-03-03T00:36:33.666Z,36.67
2023-03-03T00:39:28.532Z,36.10
2023-03-03T00:42:18.688Z,34.50
2023-03-03T00:45:24.155Z,35.63
2023-03-03T00:48:41.043Z,35.60
2023-03-03T00:51:33.088Z,32.83
2023-03-03T00:54:21.600Z,35.97
2023-03-03T00:57:10.147Z,36.37
2023-03-03T00:59:58.626Z,33.90
2023-03-03T01:02:48.428Z,34.13
2023-03-03T01:05:37.444Z,31.87
2023-03-03T01:08:27.315Z,32.50
2023-03-03T01:11:18.763Z,32.20
2023-03-03T01:14:07.340Z,31.90
2023-03-03T01:16:55.862Z,32.50
2023-03-03T01:19:44.334Z,32.70
2023-03-03T01:22:32.883Z,34.67
2023-03-03T01:25:22.757Z,32.57
2023-03-03T01:28:11.522Z,34.50
2023-03-03T01:31:02.134Z,32.80
2023-03-03T01:33:50.885Z,34.00
2023-03-03T01:36:39.386Z,33.90
2023-03-03T01:39:27.948Z,33.30
2023-03-03T01:42:17.838Z,33.03
2023-03-03T01:45:19.062Z,33.27
2023-03-03T01:48:11.013Z,32.40
2023-03-03T01:51:02.511Z,33.93
2023-03-03T01:53:52.749Z,34.60
2023-03-03T01:56:42.628Z,30.83
2023-03-03T01:59:35.337Z,33.43
2023-03-03T02:02:24.901Z,32.60
2023-03-03T02:05:13.931Z,31.13
2023-03-03T02:08:02.623Z,33.60
2023-03-03T02:10:51.604Z,33.50
2023-03-03T02:13:40.073Z,31.70
2023-03-03T02:16:30.188Z,31.53
2023-03-03T02:19:23.468Z,32.00
2023-03-03T02:22:12.461Z,31.63
2023-03-03T02:25:02.623Z,29.33
2023-03-03T02:27:52.502Z,29.90
2023-03-03T02:30:41.535Z,31.83
2023-03-03T02:33:30.532Z,33.03
2023-03-03T02:36:21.302Z,32.00
2023-03-03T02:39:12.472Z,32.10
2023-03-03T02:42:04.812Z,30.60
2023-03-03T02:44:54.675Z,31.27
2023-03-03T02:47:43.094Z,31.77
2023-03-03T02:50:31.558Z,33.30
2023-03-03T02:53:20.080Z,32.70
2023-03-03T02:56:09.912Z,30.77
2023-03-03T02:58:58.645Z,33.80
2023-03-03T03:01:48.825Z,30.77
2023-03-03T03:04:38.650Z,33.07
2023-03-03T03:07:27.389Z,31.37
2023-03-03T03:10:16.931Z,32.73
2023-03-03T03:13:05.439Z,31.17
2023-03-03T03:15:54.200Z,31.07
2023-03-03T03:18:44.022Z,31.40
2023-03-03T03:21:33.165Z,30.63
2023-03-03T03:24:21.654Z,32.70
2023-03-03T03:27:10.412Z,32.97
2023-03-03T03:29:58.902Z,30.30
2023-03-03T03:32:47.396Z,33.40
2023-03-03T03:35:37.906Z,31.80
2023-03-03T03:38:27.129Z,32.60
2023-03-03T03:41:15.676Z,31.70
2023-03-03T03:44:04.160Z,32.50
2023-03-03T03:46:52.609Z,31.77
2023-03-03T03:49:41.136Z,31.90
2023-03-03T03:52:31.009Z,31.47
2023-03-03T03:55:19.527Z,34.00
2023-03-03T03:58:08.017Z,30.50
2023-03-03T04:00:56.685Z,31.27
2023-03-03T04:03:45.176Z,33.73
2023-03-03T04:06:33.958Z,31.20
2023-03-03T04:09:23.861Z,31.13
2023-03-03T04:12:12.493Z,33.70
2023-03-03T04:15:00.936Z,29.27
2023-03-03T04:17:49.456Z,31.53
2023-03-03T04:20:37.973Z,31.73
2023-03-03T04:23:26.486Z,31.27
2023-03-03T04:26:16.304Z,32.27
2023-03-03T04:29:05.005Z,32.87
2023-03-03T04:31:53.578Z,31.13
2023-03-03T04:34:42.064Z,32.70
2023-03-03T04:37:30.566Z,31.07
2023-03-03T04:40:19.228Z,31.20
2023-03-03T04:43:09.161Z,32.93
2023-03-03T04:45:57.699Z,34.70
2023-03-03T04:48:46.489Z,33.30
2023-03-03T04:51:34.949Z,32.57
2023-03-03T04:54:23.417Z,33.00
2023-03-03T04:57:11.909Z,32.87
2023-03-03T05:00:01.747Z,31.97
2023-03-03T05:02:50.230Z,31.70
2023-03-03T05:05:38.732Z,34.77
2023-03-03T05:08:27.281Z,32.67
2023-03-03T05:11:15.949Z,33.53
2023-03-03T05:14:04.549Z,33.80
2023-03-03T05:16:54.590Z,35.77
2023-03-03T05:19:43.249Z,33.50
2023-03-03T05:22:31.700Z,32.87
2023-03-03T05:25:20.380Z,32.77
2023-03-03T05:28:08.863Z,34.10
2023-03-03T05:30:57.345Z,34.03
2023-03-03T05:33:47.307Z,36.03
2023-03-03T05:36:36.230Z,34.93
2023-03-03T05:39:24.878Z,34.37
2023-03-03T05:42:14.191Z,34.07
2023-03-03T05:45:02.731Z,32.40
2023-03-03T05:47:51.544Z,29.93
2023-03-03T05:50:41.382Z,30.30
2023-03-03T05:53:30.193Z,30.40
2023-03-03T05:56:18.802Z,31.27
2023-03-03T05:59:07.290Z,31.47
2023-03-03T06:01:55.804Z,33.00
2023-03-03T06:04:44.601Z,34.47
2023-03-03T06:07:34.444Z,31.77
2023-03-03T06:10:22.976Z,31.63
2023-03-03T06:13:11.512Z,31.47
2023-03-03T06:16:00.238Z,34.20
2023-03-03T06:18:49.163Z,33.27
2023-03-03T06:21:37.695Z,30.87
2023-03-03T06:24:30.196Z,31.57
2023-03-03T06:27:18.672Z,34.40
2023-03-03T06:30:08.469Z,33.63
2023-03-03T06:32:57.004Z,35.87
2023-03-03T06:35:47.549Z,31.60
2023-03-03T06:38:36.067Z,34.33
2023-03-03T06:41:25.986Z,34.37
2023-03-03T06:44:14.547Z,33.27
2023-03-03T06:47:03.549Z,35.70
2023-03-03T06:49:51.986Z,38.33
2023-03-03T06:52:40.649Z,37.47
2023-03-03T06:55:29.225Z,35.80
2023-03-03T06:58:20.533Z,34.57
2023-03-03T07:01:14.794Z,35.87
2023-03-03T07:04:06.047Z,32.90
2023-03-03T07:06:54.562Z,36.60
2023-03-03T07:09:45.420Z,34.13
2023-03-03T07:12:33.960Z,36.93
2023-03-03T07:15:26.071Z,37.17
2023-03-03T07:18:26.780Z,34.77
2023-03-03T07:21:20.025Z,36.60
2023-03-03T07:24:20.031Z,35.20
2023-03-03T07:27:13.417Z,34.53
2023-03-03T07:30:19.531Z,35.90
2023-03-03T07:33:21.247Z,33.97
2023-03-03T07:36:24.110Z,33.30
2023-03-03T07:39:26.448Z,35.30
2023-03-03T07:42:22.879Z,35.33
2023-03-03T07:45:23.872Z,34.77
2023-03-03T07:48:20.694Z,36.03
2023-03-03T07:51:15.160Z,35.87
2023-03-03T07:54:18.927Z,34.30
2023-03-03T07:57:16.358Z,33.20
2023-03-03T08:00:50.657Z,33.60
2023-03-03T08:03:40.653Z,32.77
2023-03-03T08:06:47.886Z,34.50
2023-03-03T08:09:43.564Z,34.10
2023-03-03T08:12:41.832Z,35.30
2023-03-03T08:15:33.299Z,33.40
2023-03-03T08:18:26.444Z,32.73
2023-03-03T08:21:17.222Z,33.77
2023-03-03T08:24:06.671Z,33.80
2023-03-03T08:26:55.187Z,30.37
2023-03-03T08:29:43.631Z,31.20
2023-03-03T08:32:32.246Z,33.90
2023-03-03T08:35:20.933Z,32.90
2023-03-03T08:38:11.991Z,32.90
2023-03-03T08:41:00.602Z,31.47
2023-03-03T08:43:49.103Z,31.43
2023-03-03T08:46:37.750Z,29.43
2023-03-03T08:49:26.261Z,31.83
2023-03-03T08:52:14.782Z,33.23
2023-03-03T08:55:04.800Z,33.30
2023-03-03T08:57:53.346Z,31.60
2023-03-03T09:00:42.052Z,31.93
2023-03-03T09:03:30.969Z,32.00
2023-03-03T09:06:19.444Z,32.63
2023-03-03T09:09:07.978Z,32.47
2023-03-03T09:12:00.556Z,29.97
2023-03-03T09:14:49.306Z,30.87
2023-03-03T09:17:38.669Z,26.87
2023-03-03T09:20:39.715Z,25.50
2023-03-03T09:23:35.676Z,28.30
2023-03-03T09:26:30.473Z,27.53
2023-03-03T09:29:26.358Z,27.47
2023-03-03T09:32:25.729Z,29.27
2023-03-03T09:35:37.508Z,29.33
2023-03-03T09:38:31.619Z,28.57
2023-03-03T09:41:41.447Z,25.13
2023-03-03T09:45:02.534Z,27.90
2023-03-03T09:48:14.804Z,28.67
2023-03-03T09:51:15.020Z,25.27
2023-03-03T09:54:16.540Z,26.80
2023-03-03T09:57:10.295Z,27.53
2023-03-03T10:00:16.228Z,26.20
2023-03-03T10:03:38.877Z,34.07
2023-03-03T10:06:29.969Z,36.80
2023-03-03T10:09:35.597Z,39.57
2023-03-03T10:12:28.402Z,38.20
2023-03-03T10:15:35.254Z,40.20
2023-03-03T10:18:33.559Z,36.77
2023-03-03T10:21:26.168Z,38.37
2023-03-03T10:24:25.048Z,35.57
2023-03-03T10:27:26.028Z,35.90
2023-03-03T10:30:33.239Z,36.70
2023-03-03T10:33:34.618Z,36.67
2023-03-03T10:36:34.095Z,33.57
2023-03-03T10:39:48.175Z,35.70
2023-03-03T10:42:47.007Z,33.83
2023-03-03T10:46:05.392Z,34.70
2023-03-03T10:49:07.276Z,32.93
2023-03-03T10:52:08.991Z,35.00
2023-03-03T10:55:25.187Z,32.27
2023-03-03T10:58:33.828Z,31.60
2023-03-03T11:01:30.400Z,32.40
2023-03-03T11:04:39.298Z,31.03
2023-03-03T11:07:30.273Z,31.70
2023-03-03T11:10:25.327Z,32.80
2023-03-03T11:13:24.066Z,30.77
2023-03-03T11:16:19.473Z,31.53
2023-03-03T11:19:20.818Z,31.63
2023-03-03T11:22:24.455Z,29.93
2023-03-03T11:25:21.466Z,30.33
2023-03-03T11:28:30.727Z,29.50
2023-03-03T11:31:22.675Z,28.90
2023-03-03T11:34:18.183Z,29.40
2023-03-03T11:37:09.863Z,28.63
2023-03-03T11:40:07.301Z,31.40
2023-03-03T11:43:02.720Z,29.70
2023-03-03T11:45:54.459Z,28.27
2023-03-03T11:48:48.395Z,30.00
2023-03-03T11:51:45.807Z,29.60
2023-03-03T11:54:39.415Z,30.80
2023-03-03T11:57:31.804Z,29.40
2023-03-03T12:00:25.573Z,29.83
2023-03-03T12:03:36.752Z,27.23
2023-03-03T12:06:31.383Z,28.40
2023-03-03T12:09:28.642Z,29.43
2023-03-03T12:12:20.435Z,28.07
2023-03-03T12:15:24.484Z,30.30
2023-03-03T12:18:33.169Z,28.20
2023-03-03T12:21:33.599Z,26.97
2023-03-03T12:24:33.973Z,31.67
2023-03-03T12:27:26.817Z,29.70
2023-03-03T12:30:24.298Z,29.90
2023-03-03T12:33:20.323Z,29.20
2023-03-03T12:36:18.168Z,29.17
2023-03-03T12:39:10.105Z,27.67
2023-03-03T12:42:05.242Z,28.67
2023-03-03T12:45:02.930Z,31.20
2023-03-03T12:47:58.056Z,28.57
2023-03-03T12:50:59.091Z,28.83
2023-03-03T12:53:59.246Z,29.03
2023-03-03T12:56:51.767Z,28.50
2023-03-03T12:59:46.075Z,28.13
2023-03-03T13:02:42.609Z,26.90
2023-03-03T13:05:39.351Z,25.90
2023-03-03T13:08:38.102Z,27.40
2023-03-03T13:11:47.318Z,30.33
2023-03-03T13:14:41.637Z,28.33
2023-03-03T13:17:33.540Z,26.70
2023-03-03T13:20:30.086Z,28.10
2023-03-03T13:23:32.168Z,26.90
2023-03-03T13:26:24.436Z,28.00
2023-03-03T13:29:18.194Z,29.33
2023-03-03T13:32:12.890Z,28.33
2023-03-03T13:35:04.283Z,28.70
2023-03-03T13:37:55.876Z,30.20
2023-03-03T13:40:47.550Z,30.37
2023-03-03T13:43:42.173Z,27.60
2023-03-03T13:46:36.758Z,29.23
2023-03-03T13:49:38.252Z,29.93
2023-03-03T13:52:29.164Z,28.13
2023-03-03T13:55:23.191Z,28.20
2023-03-03T13:58:23.558Z,28.17
2023-03-03T14:01:17.388Z,27.40
2023-03-03T14:04:15.318Z,28.50
2023-03-03T14:07:11.733Z,28.57
2023-03-03T14:10:04.598Z,29.77
2023-03-03T14:13:01.850Z,28.97
2023-03-03T14:15:57.019Z,28.50
2023-03-03T14:18:55.511Z,28.33
2023-03-03T14:21:50.833Z,29.47
2023-03-03T14:24:58.074Z,27.50
2023-03-03T14:28:02.194Z,30.57
2023-03-03T14:30:55.158Z,29.40
2023-03-03T14:33:44.727Z,29.30
2023-03-03T14:36:42.811Z,29.47
2023-03-03T14:39:34.472Z,28.70
2023-03-03T14:42:34.131Z,29.77
2023-03-03T14:45:31.907Z,31.37
2023-03-03T14:48:23.646Z,28.77
2023-03-03T14:51:27.196Z,29.33
2023-03-03T14:54:22.518Z,28.07
2023-03-03T14:57:16.378Z,29.73
2023-03-03T15:00:16.995Z,28.17
2023-03-03T15:03:23.408Z,28.10
2023-03-03T15:06:13.382Z,28.00
2023-03-03T15:09:29.715Z,28.43
2023-03-03T15:12:21.297Z,29.83
2023-03-03T15:15:19.075Z,29.13
2023-03-03T15:18:13.256Z,27.60
2023-03-03T15:21:06.344Z,31.93
2023-03-03T15:23:57.883Z,29.60
2023-03-03T15:26:49.133Z,28.50
2023-03-03T15:29:39.388Z,28.30
2023-03-03T15:32:31.255Z,30.27
2023-03-03T15:35:31.587Z,28.33
2023-03-03T15:38:29.386Z,29.37
2023-03-03T15:41:27.658Z,28.17
2023-03-03T15:44:20.367Z,30.37
2023-03-03T15:47:27.282Z,30.00
2023-03-03T15:50:30.878Z,30.00
2023-03-03T15:53:31.771Z,30.00
2023-03-03T15:56:27.386Z,27.83
2023-03-03T15:59:27.709Z,29.10
2023-03-03T16:02:18.577Z,28.80
2023-03-03T16:05:16.386Z,28.87
2023-03-03T16:08:13.600Z,29.37
2023-03-03T16:11:08.851Z,30.80
2023-03-03T16:14:05.955Z,27.00
2023-03-03T16:16:57.951Z,28.83
2023-03-03T16:19:50.748Z,27.37
2023-03-03T16:22:59.463Z,30.00
2023-03-03T16:25:59.562Z,28.00
2023-03-03T16:29:02.800Z,28.10
2023-03-03T16:31:54.592Z,27.83
2023-03-03T16:34:48.683Z,30.80
2023-03-03T16:37:39.951Z,29.20
2023-03-03T16:40:31.805Z,29.20
2023-03-03T16:43:24.412Z,29.50
2023-03-03T16:46:23.195Z,30.17
2023-03-03T16:49:17.405Z,27.87
2023-03-03T16:52:09.702Z,28.20
2023-03-03T16:55:01.140Z,28.63
2023-03-03T16:57:58.661Z,27.77
2023-03-03T17:00:53.138Z,28.10
2023-03-03T17:03:55.380Z,26.83
2023-03-03T17:06:48.931Z,26.30
2023-03-03T17:09:52.169Z,30.40
2023-03-03T17:12:52.217Z,30.30
2023-03-03T17:15:46.042Z,27.87
2023-03-03T17:18:41.999Z,28.97
2023-03-03T17:21:39.933Z,25.57
2023-03-03T17:24:37.683Z,28.30
2023-03-03T17:27:29.630Z,27.17
2023-03-03T17:30:22.525Z,28.17
2023-03-03T17:33:23.744Z,25.30
2023-03-03T17:36:27.429Z,28.50
2023-03-03T17:39:44.856Z,29.77
2023-03-03T17:42:38.815Z,27.33
2023-03-03T17:45:29.154Z,31.00
2023-03-03T17:48:40.135Z,30.90
2023-03-03T17:51:47.635Z,30.73
2023-03-03T17:54:50.841Z,32.07
2023-03-03T17:57:51.213Z,32.53
2023-03-03T18:00:48.504Z,32.27
2023-03-03T18:03:53.659Z,33.50
2023-03-03T18:07:11.905Z,33.43
2023-03-03T18:10:25.185Z,31.77
2023-03-03T18:13:22.528Z,31.33
2023-03-03T18:16:22.324Z,31.40
2023-03-03T18:19:27.482Z,30.90
2023-03-03T18:22:21.504Z,31.77
2023-03-03T18:25:11.990Z,34.37
2023-03-03T18:28:22.877Z,31.10
2023-03-03T18:31:22.838Z,34.23
2023-03-03T18:34:29.023Z,36.50
2023-03-03T18:37:37.073Z,36.40
2023-03-03T18:40:34.010Z,37.50
2023-03-03T18:43:52.167Z,38.67
2023-03-03T18:47:02.001Z,40.20
2023-03-03T18:49:57.581Z,33.67
2023-03-03T18:53:09.259Z,34.93
2023-03-03T18:55:59.283Z,33.87
2023-03-03T18:58:52.283Z,34.27
2023-03-03T19:01:43.790Z,37.10
2023-03-03T19:04:36.491Z,36.33
2023-03-03T19:07:29.953Z,36.10
2023-03-03T19:10:53.463Z,35.27
2023-03-03T19:13:47.931Z,32.73
2023-03-03T19:16:38.445Z,31.93
2023-03-03T19:19:32.630Z,30.33
2023-03-03T19:22:24.899Z,30.60
2023-03-03T19:25:32.686Z,31.37
2023-03-03T19:28:31.541Z,33.03
2023-03-03T19:31:27.036Z,33.93
2023-03-03T19:34:23.129Z,32.73
2023-03-03T19:37:24.230Z,30.73
2023-03-03T19:40:19.616Z,27.77
2023-03-03T19:43:16.379Z,29.13
2023-03-03T19:46:20.610Z,28.40
2023-03-03T19:49:18.354Z,31.43
2023-03-03T19:52:13.855Z,34.53
2023-03-03T19:55:24.475Z,34.00
2023-03-03T19:58:22.310Z,33.03
2023-03-03T20:01:17.544Z,30.87
2023-03-03T20:04:28.282Z,30.03
2023-03-03T20:07:29.132Z,30.00
2023-03-03T20:10:31.307Z,29.10
2023-03-03T20:13:35.093Z,33.10
2023-03-03T20:16:30.347Z,34.20
2023-03-03T20:19:31.092Z,37.73
2023-03-03T20:22:26.491Z,36.90
2023-03-03T20:25:26.756Z,36.30
2023-03-03T20:28:36.364Z,35.37
2023-03-03T20:31:30.692Z,35.70
2023-03-03T20:34:24.166Z,38.70
2023-03-03T20:37:17.397Z,38.50
2023-03-03T20:40:11.943Z,39.90
2023-03-03T20:43:08.347Z,36.17
2023-03-03T20:46:02.763Z,38.17
2023-03-03T20:49:04.267Z,34.80
2023-03-03T20:51:57.233Z,34.63
2023-03-03T20:54:50.629Z,37.13
2023-03-03T20:57:46.961Z,37.57
2023-03-03T21:00:39.569Z,35.17
2023-03-03T21:03:34.113Z,34.70
2023-03-03T21:06:25.582Z,34.67
2023-03-03T21:09:24.880Z,36.37
2023-03-03T21:12:28.839Z,33.80
2023-03-03T21:15:26.240Z,32.60
2023-03-03T21:18:22.109Z,36.83
2023-03-03T21:21:10.728Z,35.53
2023-03-03T21:23:59.669Z,35.47
2023-03-03T21:26:50.905Z,34.77
2023-03-03T21:29:40.765Z,36.27
2023-03-03T21:32:41.523Z,37.00
2023-03-03T21:35:30.204Z,37.23
2023-03-03T21:38:33.439Z,37.37
2023-03-03T21:41:22.243Z,36.20
2023-03-03T21:44:41.924Z,38.30
2023-03-03T21:47:30.504Z,38.43
2023-03-03T21:50:21.332Z,36.10
2023-03-03T21:53:09.851Z,35.33
2023-03-03T21:55:58.381Z,35.80
2023-03-03T21:58:46.933Z,34.07
2023-03-03T22:01:38.380Z,33.10
2023-03-03T22:04:27.473Z,29.67
2023-03-03T22:07:16.196Z,29.70
2023-03-03T22:10:05.158Z,30.93
2023-03-03T22:12:53.679Z,31.17
2023-03-03T22:15:42.247Z,32.70
2023-03-03T22:18:32.092Z,32.60
2023-03-03T22:21:20.641Z,32.77
2023-03-03T22:24:09.707Z,31.40
2023-03-03T22:26:58.216Z,31.93
2023-03-03T22:29:46.818Z,31.20
2023-03-03T22:32:35.346Z,33.90
2023-03-03T22:35:25.298Z,34.47
2023-03-03T22:38:13.859Z,32.40
2023-03-03T22:41:02.643Z,33.63
2023-03-03T22:43:51.168Z,34.00
2023-03-03T22:46:39.715Z,33.47
2023-03-03T22:49:28.807Z,34.30
2023-03-03T22:52:18.638Z,33.80
2023-03-03T22:55:08.366Z,32.03
2023-03-03T22:57:57.150Z,35.97
2023-03-03T23:00:45.643Z,33.93
2023-03-03T23:03:34.214Z,33.10
2023-03-03T23:06:22.788Z,31.47
2023-03-03T23:09:12.661Z,32.83
2023-03-03T23:12:01.919Z,33.20
2023-03-03T23:14:50.410Z,34.37
2023-03-03T23:17:38.871Z,33.67
2023-03-03T23:20:29.654Z,33.10
2023-03-03T23:23:18.098Z,33.67
2023-03-03T23:26:07.967Z,33.57
2023-03-03T23:28:56.594Z,31.37
2023-03-03T23:31:45.233Z,30.87
2023-03-03T23:34:33.991Z,30.97
2023-03-03T23:37:22.554Z,32.27
2023-03-03T23:40:12.555Z,30.70
2023-03-03T23:43:02.380Z,32.10
2023-03-03T23:45:50.904Z,30.77
2023-03-03T23:48:39.361Z,34.60
2023-03-03T23:51:27.847Z,29.20
2023-03-03T23:54:16.337Z,29.73
2023-03-03T23:57:07.870Z,31.10
2023-03-03T23:59:57.692Z,30.73
